sensor_id;sensor_type;location;lat;lon;timestamp;pressure;altitude;pressure_sealevel;temperature;humidity
75740;BME280;64357;51.344;6.550;2024-02-28T00:01:51;101523.78;;;3.74;100.00
75740;BME280;64357;51.344;6.550;2024-02-28T00:04:18;101531.94;;;3.66;100.00
75740;BME280;64357;51.344;6.550;2024-02-28T00:06:46;101539.69;;;3.86;100.00
75740;BME280;64357;51.344;6.550;2024-02-28T00:09:12;101537.63;;;3.53;100.00
75740;BME280;64357;51.344;6.550;2024-02-28T00:11:44;101532.66;;;4.27;100.00
75740;BME280;64357;51.344;6.550;2024-02-28T00:14:10;101520.19;;;3.85;100.00
75740;BME280;64357;51.344;6.550;2024-02-28T00:16:39;101524.94;;;3.58;100.00
75740;BME280;64357;51.344;6.550;2024-02-28T00:19:04;101520.56;;;3.76;100.00
75740;BME280;64357;51.344;6.550;2024-02-28T00:21:30;101523.59;;;4.04;100.00
75740;BME280;64357;51.344;6.550;2024-02-28T00:23:55;101521.03;;;3.91;100.00
75740;BME280;64357;51.344;6.550;2024-02-28T00:26:21;101521.41;;;3.82;100.00
75740;BME280;64357;51.344;6.550;2024-02-28T00:28:46;101529.59;;;3.86;100.00
75740;BME280;64357;51.344;6.550;2024-02-28T00:31:14;101538.16;;;3.99;100.00
75740;BME280;64357;51.344;6.550;2024-02-28T00:33:39;101544.00;;;3.93;100.00
75740;BME280;64357;51.344;6.550;2024-02-28T00:36:07;101531.16;;;4.22;100.00
75740;BME280;64357;51.344;6.550;2024-02-28T00:38:35;101520.69;;;4.14;100.00
75740;BME280;64357;51.344;6.550;2024-02-28T00:41:02;101530.59;;;3.63;100.00
75740;BME280;64357;51.344;6.550;2024-02-28T00:43:28;101529.19;;;3.83;100.00
75740;BME280;64357;51.344;6.550;2024-02-28T00:45:53;101527.72;;;3.72;100.00
75740;BME280;64357;51.344;6.550;2024-02-28T00:48:21;101527.63;;;3.96;100.00
75740;BME280;64357;51.344;6.550;2024-02-28T00:50:47;101553.53;;;4.01;100.00
75740;BME280;64357;51.344;6.550;2024-02-28T00:53:12;101537.81;;;3.72;100.00
75740;BME280;64357;51.344;6.550;2024-02-28T00:55:40;101547.47;;;4.06;100.00
75740;BME280;64357;51.344;6.550;2024-02-28T00:58:10;101548.00;;;4.47;100.00
75740;BME280;64357;51.344;6.550;2024-02-28T01:00:39;101542.50;;;4.00;100.00
75740;BME280;64357;51.344;6.550;2024-02-28T01:03:05;101546.38;;;3.86;100.00
75740;BME280;64357;51.344;6.550;2024-02-28T01:05:34;101552.19;;;3.79;100.00
75740;BME280;64357;51.344;6.550;2024-02-28T01:07:59;101547.72;;;3.71;100.00
75740;BME280;64357;51.344;6.550;2024-02-28T01:10:24;101554.53;;;3.41;100.00
75740;BME280;64357;51.344;6.550;2024-02-28T01:12:50;101549.88;;;3.44;100.00
75740;BME280;64357;51.344;6.550;2024-02-28T01:15:17;101545.72;;;3.26;100.00
75740;BME280;64357;51.344;6.550;2024-02-28T01:17:43;101554.47;;;3.83;100.00
75740;BME280;64357;51.344;6.550;2024-02-28T01:20:11;101544.69;;;3.37;100.00
75740;BME280;64357;51.344;6.550;2024-02-28T01:22:39;101541.59;;;3.45;100.00
75740;BME280;64357;51.344;6.550;2024-02-28T01:25:05;101535.09;;;3.34;100.00
75740;BME280;64357;51.344;6.550;2024-02-28T01:27:36;101538.22;;;3.39;100.00
75740;BME280;64357;51.344;6.550;2024-02-28T01:30:01;101540.53;;;3.19;100.00
75740;BME280;64357;51.344;6.550;2024-02-28T01:32:29;101529.88;;;3.45;100.00
75740;BME280;64357;51.344;6.550;2024-02-28T01:34:55;101526.56;;;3.15;100.00
75740;BME280;64357;51.344;6.550;2024-02-28T01:37:20;101530.16;;;3.23;100.00
75740;BME280;64357;51.344;6.550;2024-02-28T01:39:48;101525.66;;;3.52;100.00
75740;BME280;64357;51.344;6.550;2024-02-28T01:42:14;101530.59;;;3.81;100.00
75740;BME280;64357;51.344;6.550;2024-02-28T01:44:46;101527.69;;;3.91;100.00
75740;BME280;64357;51.344;6.550;2024-02-28T01:47:12;101538.16;;;3.99;100.00
75740;BME280;64357;51.344;6.550;2024-02-28T01:49:39;101514.56;;;3.75;100.00
75740;BME280;64357;51.344;6.550;2024-02-28T01:52:05;101518.25;;;3.77;100.00
75740;BME280;64357;51.344;6.550;2024-02-28T01:54:31;101529.31;;;3.90;100.00
75740;BME280;64357;51.344;6.550;2024-02-28T01:56:57;101515.44;;;3.81;100.00
75740;BME280;64357;51.344;6.550;2024-02-28T01:59:24;101514.19;;;4.03;100.00
75740;BME280;64357;51.344;6.550;2024-02-28T02:01:50;101523.69;;;3.80;100.00
75740;BME280;64357;51.344;6.550;2024-02-28T02:04:18;101513.19;;;3.77;100.00
75740;BME280;64357;51.344;6.550;2024-02-28T02:06:44;101517.69;;;3.98;100.00
75740;BME280;64357;51.344;6.550;2024-02-28T02:09:11;101501.88;;;3.81;100.00
75740;BME280;64357;51.344;6.550;2024-02-28T02:11:44;101519.88;;;4.08;100.00
75740;BME280;64357;51.344;6.550;2024-02-28T02:14:10;101518.59;;;4.17;100.00
75740;BME280;64357;51.344;6.550;2024-02-28T02:16:40;101514.00;;;4.01;100.00
75740;BME280;64357;51.344;6.550;2024-02-28T02:19:08;101510.75;;;4.03;100.00
75740;BME280;64357;51.344;6.550;2024-02-28T02:21:49;101513.66;;;3.93;100.00
75740;BME280;64357;51.344;6.550;2024-02-28T02:24:16;101504.56;;;3.69;100.00
75740;BME280;64357;51.344;6.550;2024-02-28T02:26:41;101508.56;;;3.25;100.00
75740;BME280;64357;51.344;6.550;2024-02-28T02:29:09;101520.34;;;3.37;100.00
75740;BME280;64357;51.344;6.550;2024-02-28T02:31:40;101518.13;;;3.70;100.00
75740;BME280;64357;51.344;6.550;2024-02-28T02:34:05;101521.59;;;3.83;100.00
75740;BME280;64357;51.344;6.550;2024-02-28T02:36:33;101524.28;;;3.54;100.00
75740;BME280;64357;51.344;6.550;2024-02-28T02:38:58;101523.44;;;3.66;100.00
75740;BME280;64357;51.344;6.550;2024-02-28T02:41:26;101536.06;;;3.66;100.00
75740;BME280;64357;51.344;6.550;2024-02-28T02:43:51;101534.38;;;3.54;100.00
75740;BME280;64357;51.344;6.550;2024-02-28T02:46:19;101537.25;;;3.44;100.00
75740;BME280;64357;51.344;6.550;2024-02-28T02:48:47;101540.22;;;3.47;100.00
75740;BME280;64357;51.344;6.550;2024-02-28T02:51:12;101539.72;;;3.68;100.00
75740;BME280;64357;51.344;6.550;2024-02-28T02:53:42;101549.94;;;3.57;100.00
75740;BME280;64357;51.344;6.550;2024-02-28T02:56:07;101555.16;;;3.82;100.00
75740;BME280;64357;51.344;6.550;2024-02-28T02:58:35;101544.75;;;3.86;100.00
75740;BME280;64357;51.344;6.550;2024-02-28T03:01:03;101550.28;;;4.02;100.00
75740;BME280;64357;51.344;6.550;2024-02-28T03:03:28;101558.03;;;3.72;100.00
75740;BME280;64357;51.344;6.550;2024-02-28T03:05:56;101555.38;;;3.65;100.00
75740;BME280;64357;51.344;6.550;2024-02-28T03:08:21;101555.84;;;3.63;100.00
75740;BME280;64357;51.344;6.550;2024-02-28T03:10:46;101563.47;;;3.39;100.00
75740;BME280;64357;51.344;6.550;2024-02-28T03:13:14;101557.19;;;3.66;100.00
75740;BME280;64357;51.344;6.550;2024-02-28T03:15:39;101557.31;;;3.55;100.00
75740;BME280;64357;51.344;6.550;2024-02-28T03:18:07;101551.56;;;3.56;100.00
75740;BME280;64357;51.344;6.550;2024-02-28T03:20:32;101542.38;;;3.57;100.00
75740;BME280;64357;51.344;6.550;2024-02-28T03:23:06;101540.22;;;3.65;100.00
75740;BME280;64357;51.344;6.550;2024-02-28T03:25:32;101546.88;;;3.83;100.00
75740;BME280;64357;51.344;6.550;2024-02-28T03:27:58;101556.44;;;4.04;100.00
75740;BME280;64357;51.344;6.550;2024-02-28T03:30:23;101554.34;;;3.58;100.00
75740;BME280;64357;51.344;6.550;2024-02-28T03:32:51;101554.09;;;3.74;100.00
75740;BME280;64357;51.344;6.550;2024-02-28T03:35:16;101561.19;;;3.77;100.00
75740;BME280;64357;51.344;6.550;2024-02-28T03:37:44;101565.47;;;3.65;100.00
75740;BME280;64357;51.344;6.550;2024-02-28T03:40:12;101561.00;;;3.76;100.00
75740;BME280;64357;51.344;6.550;2024-02-28T03:42:37;101569.09;;;3.49;100.00
75740;BME280;64357;51.344;6.550;2024-02-28T03:45:05;101561.22;;;4.08;100.00
75740;BME280;64357;51.344;6.550;2024-02-28T03:47:31;101575.44;;;3.77;100.00
75740;BME280;64357;51.344;6.550;2024-02-28T03:49:56;101576.16;;;3.76;100.00
75740;BME280;64357;51.344;6.550;2024-02-28T03:52:23;101582.41;;;4.21;100.00
75740;BME280;64357;51.344;6.550;2024-02-28T03:54:48;101577.47;;;3.97;100.00
75740;BME280;64357;51.344;6.550;2024-02-28T03:57:13;101578.16;;;3.96;100.00
75740;BME280;64357;51.344;6.550;2024-02-28T03:59:40;101571.53;;;4.10;100.00
75740;BME280;64357;51.344;6.550;2024-02-28T04:02:06;101580.06;;;3.55;100.00
75740;BME280;64357;51.344;6.550;2024-02-28T04:04:33;101584.00;;;3.11;100.00
75740;BME280;64357;51.344;6.550;2024-02-28T04:06:59;101592.69;;;3.55;100.00
75740;BME280;64357;51.344;6.550;2024-02-28T04:09:27;101581.41;;;3.77;100.00
75740;BME280;64357;51.344;6.550;2024-02-28T04:11:54;101574.03;;;3.60;100.00
75740;BME280;64357;51.344;6.550;2024-02-28T04:14:20;101570.44;;;4.39;100.00
75740;BME280;64357;51.344;6.550;2024-02-28T04:16:45;101575.28;;;4.06;100.00
75740;BME280;64357;51.344;6.550;2024-02-28T04:19:13;101569.88;;;4.60;100.00
75740;BME280;64357;51.344;6.550;2024-02-28T04:21:39;101575.22;;;4.12;100.00
75740;BME280;64357;51.344;6.550;2024-02-28T04:24:08;101573.94;;;4.03;100.00
75740;BME280;64357;51.344;6.550;2024-02-28T04:26:34;101578.53;;;4.05;100.00
75740;BME280;64357;51.344;6.550;2024-02-28T04:29:00;101580.41;;;4.19;100.00
75740;BME280;64357;51.344;6.550;2024-02-28T04:31:28;101585.78;;;4.59;100.00
75740;BME280;64357;51.344;6.550;2024-02-28T04:33:53;101562.75;;;4.75;100.00
75740;BME280;64357;51.344;6.550;2024-02-28T04:36:18;101579.53;;;4.31;100.00
75740;BME280;64357;51.344;6.550;2024-02-28T04:38:44;101576.31;;;4.45;100.00
75740;BME280;64357;51.344;6.550;2024-02-28T04:41:09;101571.66;;;4.35;100.00
75740;BME280;64357;51.344;6.550;2024-02-28T04:43:37;101575.41;;;4.13;100.00
75740;BME280;64357;51.344;6.550;2024-02-28T04:46:02;101590.06;;;4.34;100.00
75740;BME280;64357;51.344;6.550;2024-02-28T04:48:28;101576.41;;;4.08;100.00
75740;BME280;64357;51.344;6.550;2024-02-28T04:50:54;101587.78;;;4.17;100.00
75740;BME280;64357;51.344;6.550;2024-02-28T04:53:19;101587.72;;;4.79;100.00
75740;BME280;64357;51.344;6.550;2024-02-28T04:55:47;101592.47;;;4.58;100.00
75740;BME280;64357;51.344;6.550;2024-02-28T04:58:15;101575.97;;;4.23;100.00
75740;BME280;64357;51.344;6.550;2024-02-28T05:00:43;101594.38;;;4.22;100.00
75740;BME280;64357;51.344;6.550;2024-02-28T05:03:10;101594.22;;;4.15;100.00
75740;BME280;64357;51.344;6.550;2024-02-28T05:05:38;101600.00;;;3.59;100.00
75740;BME280;64357;51.344;6.550;2024-02-28T05:08:03;101595.59;;;3.82;100.00
75740;BME280;64357;51.344;6.550;2024-02-28T05:10:29;101593.69;;;3.68;100.00
75740;BME280;64357;51.344;6.550;2024-02-28T05:12:54;101601.94;;;3.49;100.00
75740;BME280;64357;51.344;6.550;2024-02-28T05:15:22;101605.56;;;3.93;100.00
75740;BME280;64357;51.344;6.550;2024-02-28T05:17:52;101612.34;;;4.49;100.00
75740;BME280;64357;51.344;6.550;2024-02-28T05:20:18;101599.59;;;4.11;100.00
75740;BME280;64357;51.344;6.550;2024-02-28T05:22:45;101608.38;;;4.39;100.00
75740;BME280;64357;51.344;6.550;2024-02-28T05:25:11;101610.69;;;4.37;100.00
75740;BME280;64357;51.344;6.550;2024-02-28T05:27:36;101608.94;;;4.62;100.00
75740;BME280;64357;51.344;6.550;2024-02-28T05:30:04;101627.53;;;4.49;100.00
75740;BME280;64357;51.344;6.550;2024-02-28T05:32:32;101627.56;;;4.93;100.00
75740;BME280;64357;51.344;6.550;2024-02-28T05:34:59;101636.50;;;4.66;100.00
75740;BME280;64357;51.344;6.550;2024-02-28T05:37:25;101637.88;;;4.95;100.00
75740;BME280;64357;51.344;6.550;2024-02-28T05:39:50;101634.81;;;4.41;100.00
75740;BME280;64357;51.344;6.550;2024-02-28T05:42:23;101630.53;;;4.34;100.00
75740;BME280;64357;51.344;6.550;2024-02-28T05:44:51;101633.22;;;4.23;100.00
75740;BME280;64357;51.344;6.550;2024-02-28T05:47:16;101636.81;;;4.12;100.00
75740;BME280;64357;51.344;6.550;2024-02-28T05:49:42;101639.81;;;4.28;100.00
75740;BME280;64357;51.344;6.550;2024-02-28T05:52:07;101640.03;;;4.11;100.00
75740;BME280;64357;51.344;6.550;2024-02-28T05:54:32;101644.19;;;4.11;100.00
75740;BME280;64357;51.344;6.550;2024-02-28T05:57:03;101648.59;;;3.69;100.00
75740;BME280;64357;51.344;6.550;2024-02-28T05:59:33;101649.63;;;3.77;100.00
75740;BME280;64357;51.344;6.550;2024-02-28T06:01:58;101662.00;;;4.18;100.00
75740;BME280;64357;51.344;6.550;2024-02-28T06:04:24;101666.50;;;4.26;100.00
75740;BME280;64357;51.344;6.550;2024-02-28T06:06:50;101660.66;;;3.78;100.00
75740;BME280;64357;51.344;6.550;2024-02-28T06:09:16;101662.34;;;3.71;100.00
75740;BME280;64357;51.344;6.550;2024-02-28T06:11:45;101657.22;;;3.95;100.00
75740;BME280;64357;51.344;6.550;2024-02-28T06:14:13;101665.34;;;4.61;100.00
75740;BME280;64357;51.344;6.550;2024-02-28T06:16:41;101671.41;;;4.68;100.00
75740;BME280;64357;51.344;6.550;2024-02-28T06:19:12;101642.91;;;4.69;100.00
75740;BME280;64357;51.344;6.550;2024-02-28T06:21:39;101672.75;;;4.72;100.00
75740;BME280;64357;51.344;6.550;2024-02-28T06:24:05;101677.03;;;4.78;100.00
75740;BME280;64357;51.344;6.550;2024-02-28T06:26:31;101680.56;;;4.73;100.00
75740;BME280;64357;51.344;6.550;2024-02-28T06:28:57;101682.72;;;4.83;100.00
75740;BME280;64357;51.344;6.550;2024-02-28T06:31:27;101682.28;;;4.49;100.00
75740;BME280;64357;51.344;6.550;2024-02-28T06:33:55;101687.13;;;3.92;100.00
75740;BME280;64357;51.344;6.550;2024-02-28T06:36:20;101675.34;;;3.56;100.00
75740;BME280;64357;51.344;6.550;2024-02-28T06:38:52;101692.25;;;3.87;100.00
75740;BME280;64357;51.344;6.550;2024-02-28T06:41:18;101687.63;;;3.47;100.00
75740;BME280;64357;51.344;6.550;2024-02-28T06:43:43;101696.50;;;3.75;100.00
75740;BME280;64357;51.344;6.550;2024-02-28T06:46:11;101697.03;;;4.09;100.00
75740;BME280;64357;51.344;6.550;2024-02-28T06:48:39;101701.97;;;4.20;100.00
75740;BME280;64357;51.344;6.550;2024-02-28T06:51:05;101689.50;;;3.85;100.00
75740;BME280;64357;51.344;6.550;2024-02-28T06:53:30;101706.31;;;4.03;100.00
75740;BME280;64357;51.344;6.550;2024-02-28T06:55:56;101703.38;;;4.37;100.00
75740;BME280;64357;51.344;6.550;2024-02-28T06:58:21;101712.78;;;4.38;100.00
75740;BME280;64357;51.344;6.550;2024-02-28T07:00:50;101704.19;;;4.61;100.00
75740;BME280;64357;51.344;6.550;2024-02-28T07:03:15;101709.16;;;4.98;100.00
75740;BME280;64357;51.344;6.550;2024-02-28T07:05:41;101717.47;;;4.66;100.00
75740;BME280;64357;51.344;6.550;2024-02-28T07:08:06;101723.03;;;4.45;100.00
75740;BME280;64357;51.344;6.550;2024-02-28T07:10:31;101711.34;;;4.76;100.00
75740;BME280;64357;51.344;6.550;2024-02-28T07:12:57;101703.13;;;4.72;100.00
75740;BME280;64357;51.344;6.550;2024-02-28T07:15:25;101715.03;;;4.42;100.00
75740;BME280;64357;51.344;6.550;2024-02-28T07:17:50;101723.19;;;4.34;100.00
75740;BME280;64357;51.344;6.550;2024-02-28T07:20:16;101720.25;;;4.98;100.00
75740;BME280;64357;51.344;6.550;2024-02-28T07:25:27;101732.53;;;5.21;100.00
75740;BME280;64357;51.344;6.550;2024-02-28T07:34:14;101728.78;;;5.12;100.00
75740;BME280;64357;51.344;6.550;2024-02-28T07:43:13;101719.19;;;4.91;100.00
75740;BME280;64357;51.344;6.550;2024-02-28T07:45:54;101733.28;;;5.01;100.00
75740;BME280;64357;51.344;6.550;2024-02-28T07:48:23;101737.75;;;5.66;100.00
75740;BME280;64357;51.344;6.550;2024-02-28T07:51:13;101719.91;;;5.84;100.00
75740;BME280;64357;51.344;6.550;2024-02-28T07:59:32;101748.91;;;5.74;100.00
75740;BME280;64357;51.344;6.550;2024-02-28T08:01:58;101750.16;;;5.70;100.00
75740;BME280;64357;51.344;6.550;2024-02-28T08:04:27;101742.63;;;5.90;100.00
75740;BME280;64357;51.344;6.550;2024-02-28T08:07:00;101745.19;;;6.03;100.00
75740;BME280;64357;51.344;6.550;2024-02-28T08:09:39;101750.78;;;6.00;100.00
75740;BME280;64357;51.344;6.550;2024-02-28T08:12:15;101733.91;;;5.88;100.00
75740;BME280;64357;51.344;6.550;2024-02-28T08:14:44;101748.38;;;6.27;100.00
75740;BME280;64357;51.344;6.550;2024-02-28T08:17:18;101732.38;;;6.34;100.00
75740;BME280;64357;51.344;6.550;2024-02-28T08:23:20;101753.31;;;6.78;100.00
75740;BME280;64357;51.344;6.550;2024-02-28T08:25:52;101765.59;;;6.55;100.00
75740;BME280;64357;51.344;6.550;2024-02-28T08:28:22;101753.78;;;6.68;100.00
75740;BME280;64357;51.344;6.550;2024-02-28T08:31:02;101736.13;;;6.63;100.00
75740;BME280;64357;51.344;6.550;2024-02-28T08:33:34;101746.09;;;6.81;100.00
75740;BME280;64357;51.344;6.550;2024-02-28T08:36:06;101757.13;;;6.62;100.00
75740;BME280;64357;51.344;6.550;2024-02-28T08:38:42;101756.69;;;6.52;100.00
75740;BME280;64357;51.344;6.550;2024-02-28T08:41:12;101764.81;;;6.36;100.00
75740;BME280;64357;51.344;6.550;2024-02-28T08:43:58;101780.25;;;6.38;100.00
75740;BME280;64357;51.344;6.550;2024-02-28T08:46:30;101769.00;;;5.72;100.00
75740;BME280;64357;51.344;6.550;2024-02-28T08:52:32;101784.84;;;6.28;100.00
75740;BME280;64357;51.344;6.550;2024-02-28T08:57:46;101785.84;;;5.97;100.00
75740;BME280;64357;51.344;6.550;2024-02-28T09:00:18;101790.31;;;6.31;100.00
75740;BME280;64357;51.344;6.550;2024-02-28T09:02:45;101780.50;;;6.01;100.00
75740;BME280;64357;51.344;6.550;2024-02-28T09:05:13;101787.16;;;5.88;100.00
75740;BME280;64357;51.344;6.550;2024-02-28T09:07:40;101795.09;;;6.22;100.00
75740;BME280;64357;51.344;6.550;2024-02-28T09:10:06;101783.66;;;6.64;100.00
75740;BME280;64357;51.344;6.550;2024-02-28T09:12:36;101789.38;;;6.43;100.00
75740;BME280;64357;51.344;6.550;2024-02-28T09:15:10;101781.38;;;6.14;100.00
75740;BME280;64357;51.344;6.550;2024-02-28T09:17:48;101778.16;;;6.03;100.00
75740;BME280;64357;51.344;6.550;2024-02-28T09:20:17;101792.25;;;7.04;100.00
75740;BME280;64357;51.344;6.550;2024-02-28T09:22:43;101794.97;;;6.73;100.00
75740;BME280;64357;51.344;6.550;2024-02-28T09:25:11;101783.84;;;6.98;100.00
75740;BME280;64357;51.344;6.550;2024-02-28T09:27:45;101790.16;;;7.34;100.00
75740;BME280;64357;51.344;6.550;2024-02-28T09:30:12;101775.19;;;7.50;100.00
75740;BME280;64357;51.344;6.550;2024-02-28T09:32:46;101797.72;;;8.01;100.00
75740;BME280;64357;51.344;6.550;2024-02-28T09:35:13;101794.66;;;8.04;100.00
75740;BME280;64357;51.344;6.550;2024-02-28T09:37:43;101797.41;;;7.85;100.00
75740;BME280;64357;51.344;6.550;2024-02-28T09:40:12;101791.56;;;8.06;100.00
75740;BME280;64357;51.344;6.550;2024-02-28T09:42:39;101786.56;;;7.86;100.00
75740;BME280;64357;51.344;6.550;2024-02-28T09:45:09;101782.16;;;7.85;100.00
75740;BME280;64357;51.344;6.550;2024-02-28T09:47:36;101771.31;;;7.19;100.00
75740;BME280;64357;51.344;6.550;2024-02-28T09:50:04;101774.47;;;7.04;100.00
75740;BME280;64357;51.344;6.550;2024-02-28T09:52:35;101726.50;;;6.80;100.00
75740;BME280;64357;51.344;6.550;2024-02-28T09:55:03;101757.13;;;6.75;100.00
75740;BME280;64357;51.344;6.550;2024-02-28T09:57:31;101764.09;;;7.22;100.00
75740;BME280;64357;51.344;6.550;2024-02-28T10:00:00;101752.41;;;7.37;100.00
75740;BME280;64357;51.344;6.550;2024-02-28T10:02:26;101772.00;;;6.79;100.00
75740;BME280;64357;51.344;6.550;2024-02-28T10:04:55;101762.97;;;6.81;100.00
75740;BME280;64357;51.344;6.550;2024-02-28T10:07:23;101774.38;;;7.37;100.00
75740;BME280;64357;51.344;6.550;2024-02-28T10:09:49;101764.19;;;7.57;100.00
75740;BME280;64357;51.344;6.550;2024-02-28T10:12:14;101774.09;;;7.48;100.00
75740;BME280;64357;51.344;6.550;2024-02-28T10:14:42;101758.41;;;7.65;100.00
75740;BME280;64357;51.344;6.550;2024-02-28T10:17:11;101774.03;;;7.41;100.00
75740;BME280;64357;51.344;6.550;2024-02-28T10:19:37;101755.38;;;7.47;100.00
75740;BME280;64357;51.344;6.550;2024-02-28T10:22:03;101752.22;;;6.96;100.00
75740;BME280;64357;51.344;6.550;2024-02-28T10:24:33;101773.31;;;7.42;100.00
75740;BME280;64357;51.344;6.550;2024-02-28T10:27:01;101761.84;;;8.26;100.00
75740;BME280;64357;51.344;6.550;2024-02-28T10:29:29;101757.50;;;6.98;100.00
75740;BME280;64357;51.344;6.550;2024-02-28T10:31:58;101768.72;;;7.59;100.00
75740;BME280;64357;51.344;6.550;2024-02-28T10:34:30;101781.94;;;7.30;100.00
75740;BME280;64357;51.344;6.550;2024-02-28T10:36:57;101775.03;;;7.09;100.00
75740;BME280;64357;51.344;6.550;2024-02-28T10:39:23;101788.31;;;7.80;100.00
75740;BME280;64357;51.344;6.550;2024-02-28T10:41:50;101798.09;;;7.77;100.00
75740;BME280;64357;51.344;6.550;2024-02-28T10:44:16;101786.09;;;7.09;100.00
75740;BME280;64357;51.344;6.550;2024-02-28T10:46:44;101804.81;;;6.77;100.00
75740;BME280;64357;51.344;6.550;2024-02-28T10:49:12;101789.09;;;7.00;100.00
75740;BME280;64357;51.344;6.550;2024-02-28T10:51:41;101801.09;;;7.67;100.00
75740;BME280;64357;51.344;6.550;2024-02-28T10:54:13;101807.69;;;7.72;100.00
75740;BME280;64357;51.344;6.550;2024-02-28T10:56:42;101805.97;;;7.59;100.00
75740;BME280;64357;51.344;6.550;2024-02-28T10:59:11;101791.63;;;7.86;100.00
75740;BME280;64357;51.344;6.550;2024-02-28T11:01:42;101798.59;;;7.47;100.00
75740;BME280;64357;51.344;6.550;2024-02-28T11:04:09;101787.94;;;7.10;100.00
75740;BME280;64357;51.344;6.550;2024-02-28T11:06:51;101801.09;;;7.01;100.00
75740;BME280;64357;51.344;6.550;2024-02-28T11:09:24;101798.66;;;6.95;100.00
75740;BME280;64357;51.344;6.550;2024-02-28T11:12:07;101792.91;;;7.16;100.00
75740;BME280;64357;51.344;6.550;2024-02-28T11:15:00;101798.78;;;7.49;100.00
75740;BME280;64357;51.344;6.550;2024-02-28T11:17:30;101777.91;;;7.05;100.00
75740;BME280;64357;51.344;6.550;2024-02-28T11:19:58;101791.06;;;7.35;100.00
75740;BME280;64357;51.344;6.550;2024-02-28T11:22:31;101790.19;;;7.88;100.00
75740;BME280;64357;51.344;6.550;2024-02-28T11:25:02;101781.28;;;7.18;100.00
75740;BME280;64357;51.344;6.550;2024-02-28T11:27:28;101787.63;;;7.34;100.00
75740;BME280;64357;51.344;6.550;2024-02-28T11:29:54;101779.75;;;6.73;100.00
75740;BME280;64357;51.344;6.550;2024-02-28T11:32:19;101764.31;;;6.91;100.00
75740;BME280;64357;51.344;6.550;2024-02-28T11:34:47;101783.78;;;6.78;100.00
75740;BME280;64357;51.344;6.550;2024-02-28T11:37:12;101764.97;;;7.03;100.00
75740;BME280;64357;51.344;6.550;2024-02-28T11:39:40;101774.75;;;7.20;100.00
75740;BME280;64357;51.344;6.550;2024-02-28T11:42:17;101770.56;;;7.60;100.00
75740;BME280;64357;51.344;6.550;2024-02-28T11:44:53;101765.50;;;7.94;100.00
75740;BME280;64357;51.344;6.550;2024-02-28T11:47:25;101739.78;;;8.13;100.00
75740;BME280;64357;51.344;6.550;2024-02-28T11:49:57;101758.66;;;8.42;100.00
75740;BME280;64357;51.344;6.550;2024-02-28T11:52:25;101747.72;;;9.34;100.00
75740;BME280;64357;51.344;6.550;2024-02-28T11:54:50;101743.69;;;9.57;100.00
75740;BME280;64357;51.344;6.550;2024-02-28T11:57:19;101748.25;;;9.24;100.00
75740;BME280;64357;51.344;6.550;2024-02-28T11:59:46;101742.63;;;9.13;100.00
75740;BME280;64357;51.344;6.550;2024-02-28T12:02:13;101753.34;;;9.31;100.00
75740;BME280;64357;51.344;6.550;2024-02-28T12:04:41;101732.06;;;9.45;100.00
75740;BME280;64357;51.344;6.550;2024-02-28T12:07:09;101740.97;;;9.56;100.00
75740;BME280;64357;51.344;6.550;2024-02-28T12:09:38;101745.19;;;10.28;100.00
75740;BME280;64357;51.344;6.550;2024-02-28T12:12:10;101738.44;;;10.22;100.00
75740;BME280;64357;51.344;6.550;2024-02-28T12:14:39;101735.09;;;10.74;100.00
75740;BME280;64357;51.344;6.550;2024-02-28T12:17:07;101733.84;;;10.33;100.00
75740;BME280;64357;51.344;6.550;2024-02-28T12:19:34;101746.28;;;11.75;97.37
75740;BME280;64357;51.344;6.550;2024-02-28T12:22:02;101736.78;;;11.97;88.11
75740;BME280;64357;51.344;6.550;2024-02-28T12:24:29;101726.00;;;12.24;84.39
75740;BME280;64357;51.344;6.550;2024-02-28T12:26:54;101718.59;;;12.43;81.34
75740;BME280;64357;51.344;6.550;2024-02-28T12:29:24;101716.50;;;12.07;81.83
75740;BME280;64357;51.344;6.550;2024-02-28T12:31:52;101710.38;;;11.28;89.16
75740;BME280;64357;51.344;6.550;2024-02-28T12:34:20;101715.19;;;11.79;86.05
75740;BME280;64357;51.344;6.550;2024-02-28T12:36:46;101715.88;;;11.85;85.27
75740;BME280;64357;51.344;6.550;2024-02-28T12:39:14;101694.28;;;11.29;87.81
75740;BME280;64357;51.344;6.550;2024-02-28T12:41:40;101693.25;;;11.81;83.56
75740;BME280;64357;51.344;6.550;2024-02-28T12:44:06;101689.63;;;11.72;82.85
75740;BME280;64357;51.344;6.550;2024-02-28T12:46:34;101689.03;;;11.04;87.38
75740;BME280;64357;51.344;6.550;2024-02-28T12:48:59;101683.47;;;12.01;83.00
75740;BME280;64357;51.344;6.550;2024-02-28T12:51:43;101690.06;;;13.13;74.76
75740;BME280;64357;51.344;6.550;2024-02-28T12:54:10;101684.06;;;11.83;80.32
75740;BME280;64357;51.344;6.550;2024-02-28T12:56:36;101678.59;;;12.12;80.11
75740;BME280;64357;51.344;6.550;2024-02-28T12:59:06;101681.13;;;12.76;76.56
75740;BME280;64357;51.344;6.550;2024-02-28T13:01:35;101681.25;;;12.20;76.37
75740;BME280;64357;51.344;6.550;2024-02-28T13:04:06;101678.66;;;11.57;83.28
75740;BME280;64357;51.344;6.550;2024-02-28T13:06:32;101673.38;;;11.56;82.15
75740;BME280;64357;51.344;6.550;2024-02-28T13:08:57;101671.34;;;11.21;84.01
75740;BME280;64357;51.344;6.550;2024-02-28T13:11:23;101678.47;;;10.48;91.19
75740;BME280;64357;51.344;6.550;2024-02-28T13:13:52;101663.63;;;11.60;86.27
75740;BME280;64357;51.344;6.550;2024-02-28T13:16:21;101658.19;;;11.57;83.12
75740;BME280;64357;51.344;6.550;2024-02-28T13:18:51;101645.94;;;11.55;82.17
75740;BME280;64357;51.344;6.550;2024-02-28T13:21:19;101661.03;;;11.29;82.28
75740;BME280;64357;51.344;6.550;2024-02-28T13:23:44;101653.53;;;10.68;87.35
75740;BME280;64357;51.344;6.550;2024-02-28T13:26:10;101648.44;;;11.07;88.00